Airport View

Enter AWOS ICAO identifier for current METAR.

ex. KFNL

KCQB 191315Z AUTO 32011KT 10SM CLR 15/11 A2987 RMK AO2 T01480114

19 May 2019 13:23

Frequency: 119.275

Phone: 405-258-6724

Other Area AWOS: KCUH - KSNL - KSRE - KSWO

TAF KTIK 190900Z 1909/2015 31012G18KT 9999 SKC QNH2964INS BECMG 1914/1915 33020G25KT 9999 SKC QNH2987INS BECMG 1916/1917 VRB06KT 9999 SKC QNH2987INS BECMG 2011/2012 12012KT 9999 VCSH SCT030 BKN200 QNH2987INS BECMG 2014/2015 12015G25KT 8000 -TSRA BKN030CB QNH2986INS TX24/1922Z TN12/1912Z